Airfield :







YOU CAN JOIN US ON...

 
LOGIN :

Register | Disclaimer

   EN    FR    IT 

 









Legend :    VFR   Marginal VFR   IFR   Intensive IFR   Very Intensive IFR
Visi :
Ceiling :
>= 8 km
>= 3000ft
5 to 8 km
1000 to 3000 ft
1500m to 5 km
500 to 1000 ft
800 to 1500m
200 to 500 ft
< 800m
< 200 ft
Symbols :   Thunderstorms  Fog  Heavy snow  Heavy precipitations  Wind > 20 kt






- Airport Elevation : 35 ft
- IATA code : YGR


CYGR - ëles-de-la-Madeleine

CURRENT METAR :
  • 221200Z 13011KT 20SM BKN022 13/11 A2997 RMK SC7 SLP150

EXPIRED METARs :
  • 221100Z 13009KT 20SM SCT033 BKN072 12/11 A2997 RMK SC4AC3 SLP150
  • 221000Z 13007KT 15SM FEW040 BKN065 BKN080 12/11 A2998 RMK SC2SC3AC2 SLP154

TAF TAF CYGR
Valid from the 22 at 11:00 until the 22 at 23:00 UTC


221038Z 2211/2223 13010KT P6SM FEW020 BKN060
TEMPO 2211/2218 BKN020 OVC060
BECMG 2212/2214 14012G22KT
FM221800 18015G25KT P6SM BKN030
TEMPO 2218/2223 6SM -SHRA BR BKN020
BECMG 2220/2222 21012KT RMK NXT FCST BY 221400Z
CZQM FIR / North America



MET'MAP, your aeronautical weather chart ! - Copyright ORBIFLY December 2007 - Disclaimer

ORBIFLY MET'MAP TEAM :

Programming & Development : Alexandra Zaïnal
Concept & original design : Baudouin d'Aumeries
Assistance for programming : Marc-Olivier Méhu
Technical & hardware support : Manuel Goepfert

Contact : metmap@orbifly.com




SOURCES & CREDITS :

   NOAA